Terminal Aerodrome Forecast
Issued by NWS New Orleans/Baton Rouge, LA

Home | Current Version | Previous Version | Text Only | Print | Product List | Glossary On
Versions: 1 2 3 4 5 6 7 8 9 10 11 12 13 14 15 16 17 18 19 20
000
FTUS44 KLIX 221725
TAFNEW
TAF
KNEW 221725Z 2218/2318 22017G24KT P6SM BKN025 OVC050
     FM222000 28017KT P6SM SCT025 OVC050
     FM230100 32013KT P6SM SCT050 BKN100
     FM231400 29012KT P6SM SCT250=

USA.gov is the U.S. government's official web portal to all federal, state and local government web resources and services.